createdAt,value
2023-03-21T00:04:05.549Z,41.10
2023-03-21T00:09:07.648Z,41.74
2023-03-21T00:14:14.491Z,37.80
2023-03-21T00:19:21.085Z,41.68
2023-03-21T00:24:23.628Z,41.43
2023-03-21T00:29:25.759Z,41.96
2023-03-21T00:34:36.928Z,42.20
2023-03-21T00:39:49.209Z,42.84
2023-03-21T00:44:51.437Z,42.37
2023-03-21T00:49:54.892Z,42.92
2023-03-21T00:54:56.939Z,42.84
2023-03-21T00:59:58.821Z,40.24
2023-03-21T01:05:00.844Z,42.48
2023-03-21T01:10:02.749Z,39.12
2023-03-21T01:15:05.571Z,42.49
2023-03-21T01:20:08.201Z,42.71
2023-03-21T01:25:21.833Z,42.67
2023-03-21T01:30:24.982Z,43.00
2023-03-21T01:35:32.095Z,43.05
2023-03-21T01:40:40.759Z,42.92
2023-03-21T01:46:10.468Z,42.93
2023-03-21T01:51:36.537Z,42.89
2023-03-21T01:56:40.379Z,42.48
2023-03-21T02:01:50.586Z,42.67
2023-03-21T02:07:01.173Z,43.02
2023-03-21T02:12:20.892Z,42.79
2023-03-21T02:17:32.779Z,42.93
2023-03-21T02:23:13.155Z,42.27
2023-03-21T02:28:36.278Z,42.86
2023-03-21T02:34:10.208Z,42.40
2023-03-21T02:39:26.605Z,42.21
2023-03-21T02:44:44.927Z,42.15
2023-03-21T02:49:58.032Z,43.09
2023-03-21T02:55:03.437Z,43.53
2023-03-21T03:00:16.516Z,43.21
2023-03-21T03:05:24.377Z,42.71
2023-03-21T03:11:04.611Z,42.12
2023-03-21T03:16:25.897Z,42.42
2023-03-21T03:21:36.382Z,43.15
2023-03-21T03:26:48.453Z,42.96
2023-03-21T03:31:53.792Z,43.27
2023-03-21T03:36:59.087Z,43.40
2023-03-21T03:42:21.809Z,43.44
2023-03-21T03:47:50.876Z,43.23
2023-03-21T03:53:18.038Z,43.15
2023-03-21T03:58:27.435Z,43.21
2023-03-21T04:03:49.532Z,43.49
2023-03-21T04:08:53.252Z,43.54
2023-03-21T04:13:55.570Z,43.79
2023-03-21T04:18:59.067Z,43.18
2023-03-21T04:24:01.402Z,43.24
2023-03-21T04:29:04.260Z,43.24
2023-03-21T04:34:29.247Z,43.20
2023-03-21T04:39:34.419Z,42.77
2023-03-21T04:44:36.882Z,42.79
2023-03-21T04:49:39.571Z,42.77
2023-03-21T04:54:41.789Z,42.33
2023-03-21T04:59:43.857Z,42.09
2023-03-21T05:04:45.739Z,39.47
2023-03-21T05:09:47.699Z,41.33
2023-03-21T05:14:52.156Z,41.63
2023-03-21T05:19:56.493Z,39.15
2023-03-21T05:24:58.661Z,41.43
2023-03-21T05:30:19.100Z,41.59
2023-03-21T05:35:26.387Z,41.73
2023-03-21T05:40:30.344Z,42.11
2023-03-21T05:45:33.792Z,41.81
2023-03-21T05:50:36.262Z,42.04
2023-03-21T05:55:47.187Z,41.77
2023-03-21T06:01:06.360Z,41.75
2023-03-21T06:06:10.725Z,42.05
2023-03-21T06:11:34.766Z,41.83
2023-03-21T06:16:54.019Z,42.15
2023-03-21T06:21:56.511Z,42.95
2023-03-21T06:26:58.658Z,43.21
2023-03-21T06:32:07.650Z,43.89
2023-03-21T06:37:10.152Z,44.39
2023-03-21T06:42:14.153Z,44.47
2023-03-21T06:47:16.789Z,44.40
2023-03-21T06:52:20.814Z,43.77
2023-03-21T06:57:23.597Z,44.28
2023-03-21T07:02:26.068Z,43.79
2023-03-21T07:07:43.407Z,43.07
2023-03-21T07:12:45.798Z,41.47
2023-03-21T07:17:55.365Z,39.59
2023-03-21T07:22:57.574Z,39.47
2023-03-21T07:28:01.846Z,36.56
2023-03-21T07:33:03.998Z,36.65
2023-03-21T07:38:06.597Z,38.13
2023-03-21T07:43:08.437Z,37.15
2023-03-21T07:48:14.196Z,41.56
2023-03-21T07:53:16.210Z,44.12
2023-03-21T07:58:18.398Z,46.77
2023-03-21T08:03:20.228Z,41.07
2023-03-21T08:08:22.200Z,46.60
2023-03-21T08:13:26.114Z,46.43
2023-03-21T08:18:28.260Z,45.98
2023-03-21T08:23:30.426Z,44.98
2023-03-21T08:28:32.252Z,40.21
2023-03-21T08:33:34.580Z,41.54
2023-03-21T08:38:37.091Z,42.89
2023-03-21T08:43:39.103Z,43.75
2023-03-21T08:48:41.367Z,46.01
2023-03-21T08:53:44.153Z,46.84
2023-03-21T08:58:46.175Z,47.27
2023-03-21T09:03:48.084Z,42.28
2023-03-21T09:08:53.591Z,45.84
2023-03-21T09:13:55.667Z,45.13
2023-03-21T09:18:59.264Z,41.52
2023-03-21T09:24:02.924Z,42.90
2023-03-21T09:29:06.095Z,41.16
2023-03-21T09:34:08.322Z,42.09
2023-03-21T09:39:12.020Z,42.73
2023-03-21T09:44:32.990Z,43.92
2023-03-21T09:49:45.697Z,42.17
2023-03-21T09:54:47.746Z,41.40
2023-03-21T09:59:51.138Z,39.33
2023-03-21T10:04:53.397Z,40.30
2023-03-21T10:09:56.445Z,39.93
2023-03-21T10:15:01.353Z,36.88
2023-03-21T10:20:17.179Z,35.31
2023-03-21T10:25:28.359Z,34.36
2023-03-21T10:31:02.328Z,33.78
2023-03-21T10:36:11.806Z,30.34
2023-03-21T10:41:13.877Z,30.26
2023-03-21T10:46:24.300Z,31.53
2023-03-21T10:51:30.725Z,31.20
2023-03-21T10:56:38.033Z,30.21
2023-03-21T11:01:46.645Z,28.95
2023-03-21T11:06:53.197Z,28.02
2023-03-21T11:12:13.115Z,27.24
2023-03-21T11:17:18.099Z,24.92
2023-03-21T11:22:26.516Z,24.16
2023-03-21T11:27:30.930Z,23.59
2023-03-21T11:32:36.027Z,22.84
2023-03-21T11:37:46.463Z,22.36
2023-03-21T11:42:52.096Z,21.77
2023-03-21T11:48:00.076Z,22.30
2023-03-21T11:53:17.345Z,21.57
2023-03-21T11:58:19.266Z,20.83
2023-03-21T12:03:47.772Z,20.72
2023-03-21T12:09:00.379Z,19.89
2023-03-21T12:14:09.771Z,20.60
2023-03-21T12:19:17.875Z,21.03
2023-03-21T12:24:46.243Z,20.88
2023-03-21T12:29:57.479Z,20.87
2023-03-21T12:35:05.123Z,20.59
2023-03-21T12:40:27.360Z,21.01
2023-03-21T12:45:47.045Z,20.48
2023-03-21T12:50:53.742Z,19.96
2023-03-21T12:56:01.871Z,20.02
2023-03-21T13:01:05.655Z,20.53
2023-03-21T13:06:11.227Z,20.83
2023-03-21T13:11:21.925Z,21.69
2023-03-21T13:16:32.333Z,22.01
2023-03-21T13:21:52.851Z,22.36
2023-03-21T13:27:14.292Z,22.47
2023-03-21T13:32:33.355Z,22.48
2023-03-21T13:37:40.570Z,23.22
2023-03-21T13:42:51.996Z,23.38
2023-03-21T13:47:57.718Z,24.22
2023-03-21T13:53:20.203Z,24.54
2023-03-21T13:58:24.346Z,25.20
2023-03-21T14:03:32.491Z,26.08
2023-03-21T14:08:37.816Z,25.88
2023-03-21T14:13:50.843Z,26.88
2023-03-21T14:18:57.546Z,28.15
2023-03-21T14:24:07.690Z,28.87
2023-03-21T14:29:26.077Z,29.58
2023-03-21T14:34:35.463Z,29.57
2023-03-21T14:39:37.589Z,30.10
2023-03-21T14:44:53.828Z,28.17
2023-03-21T14:49:57.799Z,30.04
2023-03-21T14:55:02.160Z,29.74
2023-03-21T15:00:14.638Z,30.32
2023-03-21T15:05:38.445Z,29.69
2023-03-21T15:10:40.845Z,30.42
2023-03-21T15:15:44.038Z,30.84
2023-03-21T15:20:48.198Z,31.61
2023-03-21T15:25:50.923Z,31.53
2023-03-21T15:30:53.940Z,30.37
2023-03-21T15:36:00.342Z,30.86
2023-03-21T15:41:20.644Z,30.37
2023-03-21T15:46:42.733Z,29.75
2023-03-21T15:51:49.768Z,29.89
2023-03-21T15:57:19.933Z,29.81
2023-03-21T16:02:26.306Z,30.16
2023-03-21T16:07:28.730Z,30.13
2023-03-21T16:12:31.006Z,30.59
2023-03-21T16:17:39.608Z,30.21
2023-03-21T16:22:41.613Z,30.27
2023-03-21T16:27:43.635Z,29.57
2023-03-21T16:32:45.935Z,31.31
2023-03-21T16:37:50.730Z,31.60
2023-03-21T16:42:52.828Z,32.12
2023-03-21T16:47:55.220Z,29.81
2023-03-21T16:52:57.975Z,31.83
2023-03-21T16:58:00.487Z,31.72
2023-03-21T17:03:12.294Z,31.34
2023-03-21T17:08:23.448Z,30.74
2023-03-21T17:13:25.637Z,31.68
2023-03-21T17:18:27.509Z,30.28
2023-03-21T17:23:29.471Z,31.67
2023-03-21T17:28:31.514Z,31.40
2023-03-21T17:33:33.555Z,34.87
2023-03-21T17:38:35.426Z,34.21
2023-03-21T17:43:37.482Z,43.36
2023-03-21T17:48:39.563Z,45.31
2023-03-21T17:53:46.074Z,47.93
2023-03-21T17:58:48.103Z,48.61
2023-03-21T18:03:55.029Z,49.12
2023-03-21T18:08:57.559Z,49.72
2023-03-21T18:14:14.981Z,51.03
2023-03-21T18:19:17.699Z,51.40
2023-03-21T18:24:19.541Z,45.62
2023-03-21T18:34:43.764Z,48.10
2023-03-21T18:39:45.705Z,54.22
2023-03-21T18:44:47.710Z,48.27
2023-03-21T18:55:14.735Z,55.59
2023-03-21T19:00:21.768Z,56.17
2023-03-21T19:05:25.101Z,55.42
2023-03-21T19:10:27.267Z,55.81
2023-03-21T19:15:29.494Z,55.57
2023-03-21T19:20:32.330Z,56.02
2023-03-21T19:25:34.408Z,55.98
2023-03-21T19:30:36.807Z,55.41
2023-03-21T19:35:42.085Z,55.16
2023-03-21T19:40:44.160Z,55.89
2023-03-21T19:45:49.150Z,55.27
2023-03-21T19:51:20.559Z,55.37
2023-03-21T19:56:21.769Z,55.30
2023-03-21T20:01:26.356Z,56.35
2023-03-21T20:06:28.441Z,56.62
2023-03-21T20:11:30.565Z,55.96
2023-03-21T20:16:36.805Z,51.98
2023-03-21T20:21:53.005Z,56.42
2023-03-21T20:26:58.437Z,56.15
2023-03-21T20:32:00.353Z,51.71
2023-03-21T20:37:06.393Z,56.45
2023-03-21T20:42:09.080Z,57.18
2023-03-21T20:47:12.302Z,57.06
2023-03-21T20:52:52.244Z,57.36
2023-03-21T20:57:38.940Z,57.83
2023-03-21T21:02:46.437Z,57.76
2023-03-21T21:07:49.116Z,58.03
2023-03-21T21:12:51.296Z,57.72
2023-03-21T21:18:06.661Z,57.63
2023-03-21T21:23:10.205Z,57.78
2023-03-21T21:28:12.257Z,58.14
2023-03-21T21:33:14.836Z,57.91
2023-03-21T21:38:20.396Z,58.30
2023-03-21T21:43:23.094Z,58.07
2023-03-21T21:48:25.212Z,58.24
2023-03-21T21:53:28.373Z,58.68
2023-03-21T21:58:33.872Z,59.02
2023-03-21T22:03:41.749Z,59.06
2023-03-21T22:08:47.123Z,58.57
2023-03-21T22:13:49.204Z,59.07
2023-03-21T22:18:51.683Z,55.66
2023-03-21T22:23:53.606Z,53.06
2023-03-21T22:28:55.745Z,58.03
2023-03-21T22:33:57.655Z,53.76
2023-03-21T22:38:59.679Z,59.06
2023-03-21T22:44:01.671Z,54.46
2023-03-21T22:49:04.428Z,58.51
2023-03-21T22:54:06.521Z,58.81
2023-03-21T22:59:08.427Z,54.70
2023-03-21T23:04:11.017Z,59.59
2023-03-21T23:09:13.410Z,59.62
2023-03-21T23:14:17.677Z,59.66
2023-03-21T23:19:21.965Z,59.32
2023-03-21T23:24:24.381Z,59.04
2023-03-21T23:29:26.537Z,59.59
2023-03-21T23:34:28.814Z,60.03
2023-03-21T23:39:33.784Z,59.97
2023-03-21T23:44:35.804Z,59.86
2023-03-21T23:49:37.836Z,60.40
2023-03-21T23:54:39.765Z,56.11
2023-03-21T23:59:41.718Z,60.58
